createdAt,value
2022-12-23T00:01:33.894Z,-2.95
2022-12-23T00:04:01.626Z,-2.93
2022-12-23T00:06:29.279Z,-2.92
2022-12-23T00:09:00.268Z,-2.94
2022-12-23T00:12:27.681Z,-2.95
2022-12-23T00:15:10.062Z,-2.97
2022-12-23T00:17:47.375Z,-3.01
2022-12-23T00:20:15.263Z,-2.99
2022-12-23T00:23:15.678Z,-2.98
2022-12-23T00:25:54.252Z,-2.96
2022-12-23T00:28:24.319Z,-2.97
2022-12-23T00:31:03.427Z,-3.01
2022-12-23T00:33:40.283Z,-3.01
2022-12-23T00:36:29.240Z,-2.98
2022-12-23T00:39:18.107Z,-2.98
2022-12-23T00:42:31.175Z,-3.01
2022-12-23T00:45:15.155Z,-2.97
2022-12-23T00:48:06.188Z,-2.96
2022-12-23T00:50:36.840Z,-2.98
2022-12-23T00:53:05.972Z,-3.01
2022-12-23T00:55:33.825Z,-3.04
2022-12-23T00:58:01.229Z,-3.06
2022-12-23T01:00:47.240Z,-3.09
2022-12-23T01:03:34.925Z,-3.10
2022-12-23T01:09:25.373Z,-3.07
2022-12-23T01:11:54.475Z,-3.06
2022-12-23T01:14:22.980Z,-3.06
2022-12-23T01:16:50.830Z,-3.04
2022-12-23T01:22:48.604Z,-3.02
2022-12-23T01:25:17.260Z,-3.02
2022-12-23T01:27:44.717Z,-3.03
2022-12-23T01:30:12.752Z,-3.05
2022-12-23T01:32:40.348Z,-3.07
2022-12-23T01:35:08.415Z,-3.08
2022-12-23T01:38:06.898Z,-3.07
2022-12-23T01:40:41.351Z,-3.06
2022-12-23T01:43:21.525Z,-3.04
2022-12-23T01:45:49.339Z,-3.02
2022-12-23T01:48:27.917Z,-3.02
2022-12-23T01:51:05.380Z,-3.01
2022-12-23T01:54:34.374Z,-3.02
2022-12-23T01:57:07.632Z,-3.05
2022-12-23T01:59:57.410Z,-3.06
2022-12-23T02:02:59.844Z,-3.08
2022-12-23T02:05:46.338Z,-3.08
2022-12-23T02:08:40.146Z,-3.07
2022-12-23T02:12:00.763Z,-3.06
2022-12-23T02:15:15.661Z,-3.03
2022-12-23T02:18:24.973Z,-3.05
2022-12-23T02:20:58.504Z,-3.07
2022-12-23T02:23:47.674Z,-3.09
2022-12-23T02:27:08.150Z,-3.10
2022-12-23T02:30:04.134Z,-3.10
2022-12-23T02:33:14.200Z,-3.09
2022-12-23T02:35:50.875Z,-3.06
2022-12-23T02:42:03.903Z,-3.08
2022-12-23T02:44:41.430Z,-3.10
2022-12-23T02:47:27.541Z,-3.11
2022-12-23T02:49:58.870Z,-3.13
2022-12-23T02:52:51.754Z,-3.15
2022-12-23T02:55:27.766Z,-3.13
2022-12-23T02:58:23.110Z,-3.10
2022-12-23T03:00:50.608Z,-3.07
2022-12-23T03:03:26.819Z,-3.04
2022-12-23T03:06:40.457Z,-3.02
2022-12-23T03:09:08.692Z,-3.00
2022-12-23T03:12:29.388Z,-3.00
2022-12-23T03:15:43.293Z,-2.99
2022-12-23T03:19:07.155Z,-3.00
2022-12-23T03:22:18.878Z,-3.01
2022-12-23T03:28:44.825Z,-2.95
2022-12-23T03:31:40.650Z,-2.93
2022-12-23T03:34:13.282Z,-2.91
2022-12-23T03:40:46.331Z,-2.91
2022-12-23T03:43:50.470Z,-2.92
2022-12-23T03:49:59.640Z,-2.94
2022-12-23T03:55:30.515Z,-2.89
2022-12-23T03:58:18.062Z,-2.86
2022-12-23T04:00:58.926Z,-2.85
2022-12-23T04:04:16.549Z,-2.84
2022-12-23T04:06:55.669Z,-2.84
2022-12-23T04:12:52.670Z,-2.85
2022-12-23T04:15:26.925Z,-2.82
2022-12-23T04:17:55.838Z,-2.79
2022-12-23T04:20:24.579Z,-2.77
2022-12-23T04:26:41.539Z,-2.79
2022-12-23T04:42:54.484Z,-2.78
2022-12-23T04:45:25.321Z,-2.75
2022-12-23T04:51:36.720Z,-2.72
2022-12-23T05:07:51.059Z,-2.58
2022-12-23T05:17:23.686Z,-2.53
2022-12-23T05:19:51.536Z,-2.54
2022-12-23T05:23:03.071Z,-2.55
2022-12-23T05:25:33.873Z,-2.58
2022-12-23T05:31:23.218Z,-2.57
2022-12-23T05:40:49.922Z,-2.54
2022-12-23T05:46:56.419Z,-2.57
2022-12-23T05:53:26.889Z,-2.56
2022-12-23T06:00:20.344Z,-2.50
2022-12-23T06:02:54.161Z,-2.49
2022-12-23T06:05:54.099Z,-2.50
2022-12-23T06:11:47.166Z,-2.44
2022-12-23T06:18:04.357Z,-2.40
2022-12-23T06:21:10.379Z,-2.41
2022-12-23T06:23:38.108Z,-2.41
2022-12-23T06:26:08.944Z,-2.40
2022-12-23T06:32:50.933Z,-2.38
2022-12-23T06:38:41.279Z,-2.30
2022-12-23T06:44:31.944Z,-2.24
2022-12-23T06:46:59.860Z,-2.22
2022-12-23T06:50:13.259Z,-2.21
2022-12-23T06:52:42.064Z,-2.20
2022-12-23T06:55:11.902Z,-2.17
2022-12-23T06:57:48.912Z,-2.11
2022-12-23T07:00:43.417Z,-2.05
2022-12-23T07:03:12.229Z,-2.01
2022-12-23T07:06:34.087Z,-1.99
2022-12-23T07:09:27.821Z,-2.01
2022-12-23T07:11:55.688Z,-1.98
2022-12-23T07:14:23.427Z,-1.91
2022-12-23T07:16:51.507Z,-1.86
2022-12-23T07:19:43.961Z,-1.84
2022-12-23T07:22:11.608Z,-1.82
2022-12-23T07:24:39.266Z,-1.79
2022-12-23T07:27:06.944Z,-1.75
2022-12-23T07:29:34.534Z,-1.71
2022-12-23T07:35:50.488Z,-1.58
2022-12-23T07:56:10.443Z,-1.24
2022-12-23T07:58:47.741Z,-1.19
2022-12-23T08:04:46.106Z,-0.99
2022-12-23T19:13:11.220Z,-1.09
2022-12-23T19:15:43.934Z,-1.12
2022-12-23T19:18:14.997Z,-1.11
2022-12-23T19:20:45.816Z,-1.11
2022-12-23T19:34:22.602Z,-0.61
2022-12-23T19:36:51.023Z,-0.56
2022-12-23T19:39:22.143Z,-0.60
2022-12-23T19:42:05.573Z,-0.67
2022-12-23T19:44:33.695Z,-0.74
2022-12-23T19:47:03.437Z,-0.80
2022-12-23T19:49:31.344Z,-0.85
2022-12-23T19:51:59.119Z,-0.88
2022-12-23T19:54:26.856Z,-0.92
2022-12-23T19:56:54.567Z,-0.95
2022-12-23T19:59:22.685Z,-1.00
2022-12-23T20:01:50.643Z,-1.05
2022-12-23T20:04:18.737Z,-1.09
2022-12-23T20:06:46.769Z,-1.12
2022-12-23T20:09:14.493Z,-1.15
2022-12-23T20:11:46.568Z,-1.21
2022-12-23T20:14:19.032Z,-1.22
2022-12-23T20:16:48.312Z,-1.23
2022-12-23T20:19:17.926Z,-1.23
2022-12-23T20:21:46.128Z,-1.22
2022-12-23T20:24:15.569Z,-1.21
2022-12-23T20:26:44.325Z,-1.20
2022-12-23T20:29:12.123Z,-1.20
2022-12-23T20:31:40.450Z,-1.23
2022-12-23T20:34:14.767Z,-1.26
2022-12-23T20:36:42.853Z,-1.28
2022-12-23T20:39:10.527Z,-1.29
2022-12-23T20:41:38.292Z,-1.31
2022-12-23T20:44:36.511Z,-1.28
2022-12-23T20:47:07.217Z,-1.32
2022-12-23T20:49:36.284Z,-1.34
2022-12-23T20:52:05.413Z,-1.37
2022-12-23T20:54:34.601Z,-1.39
2022-12-23T20:57:04.126Z,-1.43
2022-12-23T20:59:33.735Z,-1.47
2022-12-23T21:02:02.735Z,-1.49
2022-12-23T21:04:31.871Z,-1.51
2022-12-23T21:07:01.095Z,-1.51
2022-12-23T21:09:30.419Z,-1.52
2022-12-23T21:11:59.777Z,-1.51
2022-12-23T21:28:10.496Z,-1.09
2022-12-23T21:30:39.665Z,-1.07
2022-12-23T21:33:08.770Z,-1.13
2022-12-23T21:35:41.064Z,-1.21
2022-12-23T21:38:10.225Z,-1.28
2022-12-23T21:40:39.403Z,-1.34
2022-12-23T21:43:09.424Z,-1.38
2022-12-23T21:45:38.584Z,-1.41
2022-12-23T21:48:08.043Z,-1.44
2022-12-23T21:50:37.358Z,-1.49
2022-12-23T21:53:06.771Z,-1.53
2022-12-23T21:55:36.096Z,-1.58
2022-12-23T21:58:05.497Z,-1.61
2022-12-23T22:00:38.183Z,-1.65
2022-12-23T22:03:07.578Z,-1.69
2022-12-23T22:05:36.796Z,-1.72
2022-12-23T22:08:07.328Z,-1.74
2022-12-23T22:10:40.602Z,-1.75
2022-12-23T22:13:10.266Z,-1.76
2022-12-23T22:15:43.651Z,-1.77
2022-12-23T22:18:12.956Z,-1.79
2022-12-23T22:20:46.360Z,-1.81
2022-12-23T22:23:15.915Z,-1.83
2022-12-23T22:25:56.163Z,-1.86
2022-12-23T22:28:24.969Z,-1.88
2022-12-23T22:30:53.729Z,-1.89
2022-12-23T22:33:25.937Z,-1.90
2022-12-23T22:35:55.870Z,-1.87
2022-12-23T22:38:25.031Z,-1.87
2022-12-23T22:40:54.222Z,-1.88
2022-12-23T22:43:23.315Z,-1.89
2022-12-23T22:46:00.811Z,-1.89
2022-12-23T22:48:31.461Z,-1.91
2022-12-23T22:51:11.469Z,-1.93
2022-12-23T22:53:40.345Z,-1.94
2022-12-23T22:59:24.656Z,-1.91
2022-12-23T23:01:54.225Z,-1.90
2022-12-23T23:04:23.388Z,-1.89
2022-12-23T23:06:52.464Z,-1.90
2022-12-23T23:09:22.726Z,-1.90
2022-12-23T23:11:51.769Z,-1.88
2022-12-23T23:14:21.278Z,-1.86
2022-12-23T23:16:50.197Z,-1.81
2022-12-23T23:19:20.735Z,-1.77
2022-12-23T23:21:49.755Z,-1.74
2022-12-23T23:24:18.745Z,-1.70
2022-12-23T23:26:47.775Z,-1.68
2022-12-23T23:29:16.517Z,-1.67
2022-12-23T23:31:45.324Z,-1.66
2022-12-23T23:34:14.957Z,-1.68
2022-12-23T23:36:44.285Z,-1.69
2022-12-23T23:39:13.534Z,-1.73
2022-12-23T23:41:42.497Z,-1.69
2022-12-23T23:44:12.262Z,-1.67
2022-12-23T23:46:41.201Z,-1.65
2022-12-23T23:49:09.877Z,-1.63
2022-12-23T23:51:39.679Z,-1.63
2022-12-23T23:54:09.006Z,-1.63
2022-12-23T23:56:39.319Z,-1.64
2022-12-23T23:59:11.287Z,-1.64
